createdAt,value
2022-09-22T00:00:09.998Z,961.6600
2022-09-22T00:00:21.039Z,961.6600
2022-09-22T00:00:32.237Z,961.6400
2022-09-22T00:00:43.364Z,961.6400
2022-09-22T00:00:54.493Z,961.6400
2022-09-22T00:01:05.595Z,961.6400
2022-09-22T00:01:16.881Z,961.6400
2022-09-22T00:01:28.105Z,961.6200
2022-09-22T00:01:39.316Z,961.6200
2022-09-22T00:01:50.594Z,961.6400
2022-09-22T00:02:01.734Z,961.6200
2022-09-22T00:02:12.917Z,961.6400
2022-09-22T00:02:24.061Z,961.6400
2022-09-22T00:02:35.178Z,961.6200
2022-09-22T00:02:46.309Z,961.6200
2022-09-22T00:02:57.386Z,961.6400
2022-09-22T00:03:08.495Z,961.6400
2022-09-22T00:03:19.598Z,961.6400
2022-09-22T00:03:30.807Z,961.6400
2022-09-22T00:03:41.866Z,961.6200
2022-09-22T00:03:52.937Z,961.6400
2022-09-22T00:04:04.070Z,961.6400
2022-09-22T00:04:15.300Z,961.6400
2022-09-22T00:04:26.500Z,961.6200
2022-09-22T00:04:37.564Z,961.6400
2022-09-22T00:04:48.631Z,961.6400
2022-09-22T00:04:59.781Z,961.6400
2022-09-22T00:05:10.984Z,961.6400
2022-09-22T00:05:22.395Z,961.6200
2022-09-22T00:05:33.521Z,961.6200
2022-09-22T00:05:44.571Z,961.6200
2022-09-22T00:05:55.624Z,961.6200
2022-09-22T00:06:06.760Z,961.6200
2022-09-22T00:06:17.819Z,961.6200
2022-09-22T00:06:28.882Z,961.6200
2022-09-22T00:06:40.068Z,961.6200
2022-09-22T00:06:51.296Z,961.6200
2022-09-22T00:07:02.317Z,961.6200
2022-09-22T00:07:13.359Z,961.6200
2022-09-22T00:07:24.426Z,961.6200
2022-09-22T00:07:35.495Z,961.6200
2022-09-22T00:07:46.575Z,961.6200
2022-09-22T00:07:57.625Z,961.6200
2022-09-22T00:08:08.868Z,961.6200
2022-09-22T00:08:19.939Z,961.6200
2022-09-22T00:08:31.004Z,961.6000
2022-09-22T00:08:42.108Z,961.6200
2022-09-22T00:08:53.291Z,961.6000
2022-09-22T00:09:04.384Z,961.6000
2022-09-22T00:09:15.437Z,961.6000
2022-09-22T00:09:26.787Z,961.6000
2022-09-22T00:09:37.845Z,961.6000
2022-09-22T00:09:49.018Z,961.6200
2022-09-22T00:10:00.076Z,961.6200
2022-09-22T00:10:11.118Z,961.5800
2022-09-22T00:10:22.175Z,961.5800
2022-09-22T00:10:33.339Z,961.5800
2022-09-22T00:10:44.475Z,961.5800
2022-09-22T00:10:55.634Z,961.5800
2022-09-22T00:11:06.707Z,961.5800
2022-09-22T00:11:17.863Z,961.6000
2022-09-22T00:11:29.126Z,961.5800
2022-09-22T00:11:40.222Z,961.5800
2022-09-22T00:11:51.287Z,961.5800
2022-09-22T00:12:02.339Z,961.6000
2022-09-22T00:12:13.388Z,961.6000
2022-09-22T00:12:24.607Z,961.6000
2022-09-22T00:12:35.629Z,961.6000
2022-09-22T00:12:46.683Z,961.6000
2022-09-22T00:12:57.839Z,961.5800
2022-09-22T00:13:08.941Z,961.5800
2022-09-22T00:13:20.129Z,961.5600
2022-09-22T00:13:31.282Z,961.5600
2022-09-22T00:13:42.377Z,961.5600
2022-09-22T00:13:53.577Z,961.5600
2022-09-22T00:14:04.716Z,961.5600
2022-09-22T00:14:15.861Z,961.5600
2022-09-22T00:14:26.928Z,961.5600
2022-09-22T00:14:38.086Z,961.5600
2022-09-22T00:14:49.287Z,961.5400
2022-09-22T00:15:00.420Z,961.5600
2022-09-22T00:15:11.481Z,961.5800
2022-09-22T00:15:22.537Z,961.5600
2022-09-22T00:15:33.678Z,961.5400
2022-09-22T00:15:44.849Z,961.5400
2022-09-22T00:15:55.982Z,961.5600
2022-09-22T00:16:07.129Z,961.5400
2022-09-22T00:16:18.215Z,961.5400
2022-09-22T00:16:29.361Z,961.5400
2022-09-22T00:16:40.601Z,961.5400
2022-09-22T00:16:51.647Z,961.5400
2022-09-22T00:17:02.778Z,961.5600
2022-09-22T00:17:13.825Z,961.5400
2022-09-22T00:17:24.866Z,961.5400
2022-09-22T00:17:35.992Z,961.5400
2022-09-22T00:17:47.077Z,961.5400
2022-09-22T00:17:58.132Z,961.5200
2022-09-22T00:18:09.247Z,961.5400
2022-09-22T00:18:20.487Z,961.5200
2022-09-22T00:18:31.688Z,961.5400
2022-09-22T00:18:42.904Z,961.5400
2022-09-22T00:18:53.967Z,961.5400
2022-09-22T00:19:05.250Z,961.5200
2022-09-22T00:19:16.518Z,961.5200
2022-09-22T00:19:27.605Z,961.5400
2022-09-22T00:19:38.687Z,961.5400
2022-09-22T00:19:49.801Z,961.5400
2022-09-22T00:20:00.854Z,961.5400
2022-09-22T00:20:11.950Z,961.5200
2022-09-22T00:20:23.080Z,961.5400
2022-09-22T00:20:34.142Z,961.5200
2022-09-22T00:20:45.212Z,961.5200
2022-09-22T00:20:56.502Z,961.5200
2022-09-22T00:21:07.546Z,961.5400
2022-09-22T00:21:18.600Z,961.5200
2022-09-22T00:21:29.679Z,961.5200
2022-09-22T00:21:40.740Z,961.5200
2022-09-22T00:21:51.819Z,961.5200
2022-09-22T00:22:02.878Z,961.5400
2022-09-22T00:22:14.109Z,961.5200
2022-09-22T00:22:25.209Z,961.5400
2022-09-22T00:22:36.276Z,961.5200
2022-09-22T00:22:47.349Z,961.5200
2022-09-22T00:22:58.489Z,961.5200
2022-09-22T00:23:09.608Z,961.5400
2022-09-22T00:23:20.688Z,961.5400
2022-09-22T00:23:31.768Z,961.5400
2022-09-22T00:23:42.874Z,961.5400
2022-09-22T00:23:53.939Z,961.5400
2022-09-22T00:24:05.014Z,961.5600
2022-09-22T00:24:16.172Z,961.5600
2022-09-22T00:24:27.311Z,961.5600
2022-09-22T00:24:38.374Z,961.5200
2022-09-22T00:24:49.417Z,961.5200
2022-09-22T00:25:00.567Z,961.5400
2022-09-22T00:25:11.659Z,961.5400
2022-09-22T00:25:22.716Z,961.5200
2022-09-22T00:25:33.771Z,961.5200
2022-09-22T00:25:44.860Z,961.5400
2022-09-22T00:25:55.908Z,961.5200
2022-09-22T00:26:06.983Z,961.5400
2022-09-22T00:26:18.159Z,961.4800
2022-09-22T00:26:29.500Z,961.4800
2022-09-22T00:26:40.570Z,961.5000
2022-09-22T00:26:51.777Z,961.5000
2022-09-22T00:27:02.810Z,961.5000
2022-09-22T00:27:13.857Z,961.5000
2022-09-22T00:27:24.909Z,961.4800
2022-09-22T00:27:35.960Z,961.4800
2022-09-22T00:27:47.087Z,961.5000
2022-09-22T00:27:58.118Z,961.5000
2022-09-22T00:28:09.340Z,961.4800
2022-09-22T00:28:20.559Z,961.4800
2022-09-22T00:28:31.697Z,961.4800
2022-09-22T00:28:42.818Z,961.4800
2022-09-22T00:28:53.978Z,961.4800
2022-09-22T00:29:05.201Z,961.4600
2022-09-22T00:29:16.407Z,961.4600
2022-09-22T00:29:27.485Z,961.4600
2022-09-22T00:29:38.543Z,961.4600
2022-09-22T00:29:49.607Z,961.4600
2022-09-22T00:30:00.646Z,961.4400
2022-09-22T00:30:11.846Z,961.4400
2022-09-22T00:30:23.070Z,961.4600
2022-09-22T00:30:34.217Z,961.4600
2022-09-22T00:30:45.311Z,961.4600
2022-09-22T00:30:56.350Z,961.4600
2022-09-22T00:31:07.536Z,961.4800
2022-09-22T00:31:18.685Z,961.4600
2022-09-22T00:31:30.050Z,961.4600
2022-09-22T00:31:41.211Z,961.5000
2022-09-22T00:31:52.359Z,961.5000
2022-09-22T00:32:07.159Z,961.5000
2022-09-22T00:32:18.775Z,961.4600
2022-09-22T00:32:29.975Z,961.4600
2022-09-22T00:32:41.035Z,961.4600
2022-09-22T00:32:52.090Z,961.4600
2022-09-22T00:33:03.132Z,961.4600
2022-09-22T00:33:14.200Z,961.4400
2022-09-22T00:33:25.396Z,961.4400
2022-09-22T00:33:36.532Z,961.4200
2022-09-22T00:33:47.630Z,961.4400
2022-09-22T00:33:58.814Z,961.4400
2022-09-22T00:34:09.870Z,961.4400
2022-09-22T00:34:21.022Z,961.4400
2022-09-22T00:34:32.191Z,961.4200
2022-09-22T00:34:43.382Z,961.4200
2022-09-22T00:34:54.581Z,961.4200
2022-09-22T00:35:05.621Z,961.4200
2022-09-22T00:35:16.661Z,961.4200
2022-09-22T00:35:27.861Z,961.4200
2022-09-22T00:35:39.065Z,961.4200
2022-09-22T00:35:50.102Z,961.4400
2022-09-22T00:36:01.349Z,961.4400
2022-09-22T00:36:12.539Z,961.4400
2022-09-22T00:36:23.589Z,961.4400
2022-09-22T00:36:34.651Z,961.4400
2022-09-22T00:36:45.700Z,961.4400
2022-09-22T00:36:56.769Z,961.4200
2022-09-22T00:37:07.830Z,961.4200
2022-09-22T00:37:18.969Z,961.4200
2022-09-22T00:37:30.152Z,961.4200
2022-09-22T00:37:41.222Z,961.4200
2022-09-22T00:37:52.277Z,961.4200
2022-09-22T00:38:03.473Z,961.4200
2022-09-22T00:38:14.676Z,961.4200
2022-09-22T00:38:25.911Z,961.4400
2022-09-22T00:38:37.079Z,961.4400
2022-09-22T00:38:48.214Z,961.4400
2022-09-22T00:38:59.545Z,961.4400
2022-09-22T00:39:10.608Z,961.4400
2022-09-22T00:39:21.745Z,961.4200
2022-09-22T00:39:33.027Z,961.4400
2022-09-22T00:39:44.083Z,961.4200
2022-09-22T00:39:55.148Z,961.4400
2022-09-22T00:40:06.263Z,961.4200
2022-09-22T00:40:17.447Z,961.4200
2022-09-22T00:40:28.505Z,961.4400
2022-09-22T00:40:39.602Z,961.4400
2022-09-22T00:40:50.799Z,961.4400
2022-09-22T00:41:01.991Z,961.4200
2022-09-22T00:41:13.131Z,961.4400
2022-09-22T00:41:24.335Z,961.4000
2022-09-22T00:41:35.462Z,961.4200
2022-09-22T00:41:46.595Z,961.4000
2022-09-22T00:41:57.728Z,961.4000
2022-09-22T00:42:08.919Z,961.4200
2022-09-22T00:42:20.125Z,961.4000
2022-09-22T00:42:31.275Z,961.4000
2022-09-22T00:42:42.466Z,961.4000
2022-09-22T00:42:53.536Z,961.4000
2022-09-22T00:43:04.668Z,961.4000
2022-09-22T00:43:15.842Z,961.4000
2022-09-22T00:43:27.050Z,961.4000
2022-09-22T00:43:38.146Z,961.3800
2022-09-22T00:43:49.390Z,961.3800
2022-09-22T00:44:00.437Z,961.3800
2022-09-22T00:44:11.586Z,961.3800
2022-09-22T00:44:22.799Z,961.3800
2022-09-22T00:44:33.925Z,961.4000
2022-09-22T00:44:44.962Z,961.3800
2022-09-22T00:44:56.184Z,961.4000
2022-09-22T00:45:07.306Z,961.3800
2022-09-22T00:45:18.444Z,961.4000
2022-09-22T00:45:29.497Z,961.3800
2022-09-22T00:45:40.605Z,961.3800
2022-09-22T00:45:51.735Z,961.3800
2022-09-22T00:46:02.798Z,961.3800
2022-09-22T00:46:14.074Z,961.3800
2022-09-22T00:46:25.186Z,961.3800
2022-09-22T00:46:36.719Z,961.3800
2022-09-22T00:46:47.814Z,961.4000
2022-09-22T00:46:58.972Z,961.4000
2022-09-22T00:47:10.217Z,961.4000
2022-09-22T00:47:21.416Z,961.4000
2022-09-22T00:47:32.615Z,961.4000
2022-09-22T00:47:43.818Z,961.4000
2022-09-22T00:47:55.019Z,961.4000
2022-09-22T00:48:06.216Z,961.4000
2022-09-22T00:48:17.334Z,961.3800
2022-09-22T00:48:28.432Z,961.3700
2022-09-22T00:48:39.496Z,961.3700
2022-09-22T00:48:50.696Z,961.3700
2022-09-22T00:49:01.736Z,961.3800
2022-09-22T00:49:12.816Z,961.3800
2022-09-22T00:49:23.872Z,961.3800
2022-09-22T00:49:34.936Z,961.3800
2022-09-22T00:49:46.013Z,961.3800
2022-09-22T00:49:57.070Z,961.3700
2022-09-22T00:50:08.137Z,961.3700
2022-09-22T00:50:19.240Z,961.3700
2022-09-22T00:50:30.436Z,961.3700
2022-09-22T00:50:41.640Z,961.3700
2022-09-22T00:50:52.704Z,961.3700
2022-09-22T00:51:03.756Z,961.3700
2022-09-22T00:51:14.846Z,961.3500
2022-09-22T00:51:25.979Z,961.3700
2022-09-22T00:51:37.034Z,961.3700
2022-09-22T00:51:48.223Z,961.3700
2022-09-22T00:51:59.302Z,961.3500
2022-09-22T00:52:10.372Z,961.3700
2022-09-22T00:52:21.452Z,961.3700
2022-09-22T00:52:32.582Z,961.3700
2022-09-22T00:52:43.698Z,961.3700
2022-09-22T00:52:54.738Z,961.3300
2022-09-22T00:53:05.856Z,961.3500
2022-09-22T00:53:17.009Z,961.3500
2022-09-22T00:53:28.090Z,961.3700
2022-09-22T00:53:39.221Z,961.3500
2022-09-22T00:53:50.342Z,961.3700
2022-09-22T00:54:01.800Z,961.3700
2022-09-22T00:54:13.020Z,961.3500
2022-09-22T00:54:24.049Z,961.3300
2022-09-22T00:54:35.189Z,961.3700
2022-09-22T00:54:46.381Z,961.3500
2022-09-22T00:54:57.454Z,961.3500
2022-09-22T00:55:08.557Z,961.3500
2022-09-22T00:55:19.692Z,961.3500
2022-09-22T00:55:30.875Z,961.3300
2022-09-22T00:55:42.073Z,961.3300
2022-09-22T00:55:53.350Z,961.3300
2022-09-22T00:56:04.482Z,961.3300
2022-09-22T00:56:15.691Z,961.3100
2022-09-22T00:56:26.765Z,961.3300
2022-09-22T00:56:37.810Z,961.3300
2022-09-22T00:56:49.142Z,961.3300
2022-09-22T00:57:00.202Z,961.3300
2022-09-22T00:57:11.235Z,961.3100
2022-09-22T00:57:22.477Z,961.3300
2022-09-22T00:57:33.557Z,961.3100
2022-09-22T00:57:44.610Z,961.3100
2022-09-22T00:57:55.737Z,961.3300
2022-09-22T00:58:06.966Z,961.3300
2022-09-22T00:58:18.028Z,961.3300
2022-09-22T00:58:29.106Z,961.3100
2022-09-22T00:58:40.284Z,961.3300
2022-09-22T00:58:51.686Z,961.3100
2022-09-22T00:59:02.822Z,961.3100
2022-09-22T00:59:13.837Z,961.3100
2022-09-22T00:59:25.047Z,961.3100
2022-09-22T00:59:36.086Z,961.3100
2022-09-22T00:59:47.126Z,961.3100
2022-09-22T00:59:58.328Z,961.3300
2022-09-22T01:00:09.386Z,961.3100
2022-09-22T01:00:20.586Z,961.3100
2022-09-22T01:00:31.826Z,961.3100
2022-09-22T01:00:43.011Z,961.3100
2022-09-22T01:00:54.414Z,961.3100
2022-09-22T01:01:05.789Z,961.3100
2022-09-22T01:01:16.905Z,961.3100
2022-09-22T01:01:28.001Z,961.3100
2022-09-22T01:01:39.250Z,961.2900
2022-09-22T01:01:50.390Z,961.3100
2022-09-22T01:02:01.471Z,961.2900
2022-09-22T01:02:12.656Z,961.2700
2022-09-22T01:02:23.736Z,961.2700
2022-09-22T01:02:34.794Z,961.3100
2022-09-22T01:02:45.875Z,961.2900
2022-09-22T01:02:56.935Z,961.2700
2022-09-22T01:03:07.983Z,961.2900
2022-09-22T01:03:19.047Z,961.2700
2022-09-22T01:03:30.347Z,961.2700
2022-09-22T01:03:41.567Z,961.2900
2022-09-22T01:03:52.729Z,961.2700
2022-09-22T01:04:03.855Z,961.2700
2022-09-22T01:04:14.899Z,961.2700
2022-09-22T01:04:25.939Z,961.2900
2022-09-22T01:04:36.990Z,961.2700
2022-09-22T01:04:48.240Z,961.2500
2022-09-22T01:04:59.289Z,961.2700
2022-09-22T01:05:10.372Z,961.2500
2022-09-22T01:05:21.450Z,961.2300
2022-09-22T01:05:32.607Z,961.2300
2022-09-22T01:05:43.677Z,961.2300
2022-09-22T01:05:54.765Z,961.2300
2022-09-22T01:06:05.997Z,961.2500
2022-09-22T01:06:17.205Z,961.2500
2022-09-22T01:06:28.267Z,961.2500
2022-09-22T01:06:39.354Z,961.2500
2022-09-22T01:06:50.732Z,961.2300
2022-09-22T01:07:01.788Z,961.2300
2022-09-22T01:07:12.878Z,961.2300
2022-09-22T01:07:23.960Z,961.2300
2022-09-22T01:07:35.237Z,961.2500
2022-09-22T01:07:46.289Z,961.2300
2022-09-22T01:07:57.340Z,961.2500
2022-09-22T01:08:08.410Z,961.2500
2022-09-22T01:08:19.557Z,961.2300
2022-09-22T01:08:30.748Z,961.2300
2022-09-22T01:08:41.987Z,961.2300
2022-09-22T01:08:53.133Z,961.2300
2022-09-22T01:09:04.245Z,961.2100
2022-09-22T01:09:15.314Z,961.2100
2022-09-22T01:09:26.414Z,961.2100
2022-09-22T01:09:37.538Z,961.2100
2022-09-22T01:09:48.608Z,961.2100
2022-09-22T01:09:59.807Z,961.2100
2022-09-22T01:10:11.001Z,961.2100
2022-09-22T01:10:22.143Z,961.1900
2022-09-22T01:10:33.198Z,961.2100
2022-09-22T01:10:44.247Z,961.2300
2022-09-22T01:10:55.371Z,961.2100
2022-09-22T01:11:06.507Z,961.2100
2022-09-22T01:11:17.550Z,961.2100
2022-09-22T01:11:28.639Z,961.2100
2022-09-22T01:11:39.763Z,961.2300
2022-09-22T01:11:51.202Z,961.2300
2022-09-22T01:12:02.257Z,961.2100
2022-09-22T01:12:13.324Z,961.2100
2022-09-22T01:12:24.705Z,961.2100
2022-09-22T01:12:35.947Z,961.2300
2022-09-22T01:12:47.147Z,961.2100
2022-09-22T01:12:58.350Z,961.2100
2022-09-22T01:13:09.435Z,961.2100
2022-09-22T01:13:20.505Z,961.2100
2022-09-22T01:13:31.556Z,961.2300
2022-09-22T01:13:42.645Z,961.2100
2022-09-22T01:13:53.776Z,961.2100
2022-09-22T01:14:04.822Z,961.2300
2022-09-22T01:14:15.883Z,961.2300
2022-09-22T01:14:27.013Z,961.2100
2022-09-22T01:14:38.055Z,961.2100
2022-09-22T01:14:49.141Z,961.2100
2022-09-22T01:15:00.234Z,961.2100
2022-09-22T01:15:11.436Z,961.2300
2022-09-22T01:15:22.635Z,961.1900
2022-09-22T01:15:33.695Z,961.1900
2022-09-22T01:15:44.856Z,961.2100
2022-09-22T01:15:56.015Z,961.2100
2022-09-22T01:16:07.117Z,961.2100
2022-09-22T01:16:18.377Z,961.1900
2022-09-22T01:16:29.472Z,961.1900
2022-09-22T01:16:40.593Z,961.2100
2022-09-22T01:16:51.707Z,961.2100
2022-09-22T01:17:02.907Z,961.2100
2022-09-22T01:17:14.108Z,961.2100
2022-09-22T01:17:25.307Z,961.1900
2022-09-22T01:17:36.388Z,961.1900
2022-09-22T01:17:47.577Z,961.2100
2022-09-22T01:17:58.698Z,961.2100
2022-09-22T01:18:09.752Z,961.1900
2022-09-22T01:18:20.882Z,961.1900
2022-09-22T01:18:31.941Z,961.1900
2022-09-22T01:18:43.063Z,961.1900
2022-09-22T01:18:54.155Z,961.1700
2022-09-22T01:19:05.195Z,961.1700
2022-09-22T01:19:16.651Z,961.1900
2022-09-22T01:19:27.854Z,961.1500
2022-09-22T01:19:38.933Z,961.1700
2022-09-22T01:19:50.009Z,961.1700
2022-09-22T01:20:01.209Z,961.1700
2022-09-22T01:20:12.412Z,961.1700
2022-09-22T01:20:23.448Z,961.1700
2022-09-22T01:20:34.491Z,961.1500
2022-09-22T01:20:45.532Z,961.1700
2022-09-22T01:20:56.751Z,961.1700
2022-09-22T01:21:07.886Z,961.1700
2022-09-22T01:21:19.024Z,961.1700
2022-09-22T01:21:30.113Z,961.1700
2022-09-22T01:21:41.173Z,961.1500
2022-09-22T01:21:52.308Z,961.1500
2022-09-22T01:22:03.382Z,961.1500
2022-09-22T01:22:14.441Z,961.1500
2022-09-22T01:22:25.583Z,961.1500
2022-09-22T01:22:36.635Z,961.1500
2022-09-22T01:22:47.715Z,961.1500
2022-09-22T01:22:58.772Z,961.1500
2022-09-22T01:23:09.912Z,961.1500
2022-09-22T01:23:21.051Z,961.1500
2022-09-22T01:23:32.121Z,961.1700
2022-09-22T01:23:43.243Z,961.1700
2022-09-22T01:23:54.472Z,961.1700
2022-09-22T01:24:05.777Z,961.1700
2022-09-22T01:24:16.893Z,961.1700
2022-09-22T01:24:28.234Z,961.1700
2022-09-22T01:24:39.316Z,961.1700
2022-09-22T01:24:50.505Z,961.1700
2022-09-22T01:25:01.715Z,961.1700
2022-09-22T01:25:12.915Z,961.1700
2022-09-22T01:25:24.032Z,961.1500
2022-09-22T01:25:35.096Z,961.1500
2022-09-22T01:25:46.137Z,961.1300
2022-09-22T01:25:57.364Z,961.1500
2022-09-22T01:26:08.417Z,961.1500
2022-09-22T01:26:19.497Z,961.1500
2022-09-22T01:26:30.546Z,961.1500
2022-09-22T01:26:41.748Z,961.1500
2022-09-22T01:26:52.946Z,961.1500
2022-09-22T01:27:04.148Z,961.1700
2022-09-22T01:27:15.219Z,961.1500
2022-09-22T01:27:26.366Z,961.1500
2022-09-22T01:27:37.607Z,961.1500
2022-09-22T01:27:48.830Z,961.1500
2022-09-22T01:27:59.895Z,961.1500
2022-09-22T01:28:10.958Z,961.1700
2022-09-22T01:28:21.998Z,961.1500
2022-09-22T01:28:33.061Z,961.1300
2022-09-22T01:28:44.201Z,961.1300
2022-09-22T01:28:55.244Z,961.1500
2022-09-22T01:29:06.320Z,961.1300
2022-09-22T01:29:17.451Z,961.1300
2022-09-22T01:29:28.667Z,961.1300
2022-09-22T01:29:39.712Z,961.1500
2022-09-22T01:29:50.912Z,961.1500
2022-09-22T01:30:01.969Z,961.1500
2022-09-22T01:30:13.047Z,961.1300
2022-09-22T01:30:24.201Z,961.1300
2022-09-22T01:30:35.210Z,961.1300
2022-09-22T01:30:46.287Z,961.1500
2022-09-22T01:30:57.404Z,961.1500
2022-09-22T01:31:08.654Z,961.1500
2022-09-22T01:31:19.856Z,961.1500
2022-09-22T01:31:30.969Z,961.1700
2022-09-22T01:31:42.110Z,961.1700
2022-09-22T01:31:53.271Z,961.1500
2022-09-22T01:32:04.475Z,961.1500
2022-09-22T01:32:15.679Z,961.1300
2022-09-22T01:32:26.872Z,961.1500
2022-09-22T01:32:38.077Z,961.1500
2022-09-22T01:32:49.200Z,961.1500
2022-09-22T01:33:00.295Z,961.1500
2022-09-22T01:33:11.342Z,961.1500
2022-09-22T01:33:22.468Z,961.1500
2022-09-22T01:33:33.703Z,961.1500
2022-09-22T01:33:44.943Z,961.1500
2022-09-22T01:33:56.032Z,961.1500
2022-09-22T01:34:07.231Z,961.1300
2022-09-22T01:34:18.363Z,961.1300
2022-09-22T01:34:29.480Z,961.1300
2022-09-22T01:34:40.523Z,961.1300
2022-09-22T01:34:51.756Z,961.1300
2022-09-22T01:35:02.814Z,961.1300
2022-09-22T01:35:13.888Z,961.1300
2022-09-22T01:35:25.005Z,961.1300
2022-09-22T01:35:36.066Z,961.1300
2022-09-22T01:35:47.266Z,961.1300
2022-09-22T01:35:58.360Z,961.1300
2022-09-22T01:36:09.430Z,961.1100
2022-09-22T01:36:20.577Z,961.1100
2022-09-22T01:36:31.629Z,961.1100
2022-09-22T01:36:42.738Z,961.0900
2022-09-22T01:36:53.880Z,961.1100
2022-09-22T01:37:04.952Z,961.1100
2022-09-22T01:37:16.090Z,961.1100
2022-09-22T01:37:27.276Z,961.0900
2022-09-22T01:37:38.334Z,961.0900
2022-09-22T01:37:49.386Z,961.0900
2022-09-22T01:38:00.441Z,961.0900
2022-09-22T01:38:11.632Z,961.1100
2022-09-22T01:38:22.771Z,961.0700
2022-09-22T01:38:33.845Z,961.0900
2022-09-22T01:38:44.999Z,961.0900
2022-09-22T01:38:56.162Z,961.0900
2022-09-22T01:39:07.377Z,961.0900
2022-09-22T01:39:18.572Z,961.0900
2022-09-22T01:39:29.712Z,961.0900
2022-09-22T01:39:40.793Z,961.0900
2022-09-22T01:39:51.819Z,961.0700
2022-09-22T01:40:02.898Z,961.0700
2022-09-22T01:40:14.054Z,961.0700
2022-09-22T01:40:25.243Z,961.0700
2022-09-22T01:40:36.332Z,961.0700
2022-09-22T01:40:47.527Z,961.0500
2022-09-22T01:40:58.933Z,961.0500
2022-09-22T01:41:09.997Z,961.0500
2022-09-22T01:41:21.089Z,961.0500
2022-09-22T01:41:32.225Z,961.0500
2022-09-22T01:41:43.376Z,961.0300
2022-09-22T01:41:54.579Z,961.0300
2022-09-22T01:42:05.625Z,961.0300
2022-09-22T01:42:16.756Z,961.0100
2022-09-22T01:42:27.892Z,961.0100
2022-09-22T01:42:38.946Z,960.9900
2022-09-22T01:42:50.041Z,960.9900
2022-09-22T01:43:01.179Z,960.9900
2022-09-22T01:43:12.252Z,961.0100
2022-09-22T01:43:23.347Z,960.9900
2022-09-22T01:43:34.393Z,960.9700
2022-09-22T01:43:45.586Z,960.9700
2022-09-22T01:43:56.826Z,960.9700
2022-09-22T01:44:08.005Z,960.9700
2022-09-22T01:44:19.132Z,960.9500
2022-09-22T01:44:30.349Z,960.9500
2022-09-22T01:44:41.435Z,960.9500
2022-09-22T01:44:52.507Z,960.9500
2022-09-22T01:45:03.647Z,960.9700
2022-09-22T01:45:14.650Z,960.9500
2022-09-22T01:45:25.740Z,960.9300
2022-09-22T01:45:36.983Z,960.9500
2022-09-22T01:45:48.133Z,960.9500
2022-09-22T01:45:59.224Z,960.9300
2022-09-22T01:46:10.396Z,960.9300
2022-09-22T01:46:21.558Z,960.9300
2022-09-22T01:46:32.692Z,960.9500
2022-09-22T01:46:43.791Z,960.9300
2022-09-22T01:46:54.882Z,960.9300
2022-09-22T01:47:05.963Z,960.9300
2022-09-22T01:47:17.013Z,960.9100
2022-09-22T01:47:28.075Z,960.9300
2022-09-22T01:47:39.131Z,960.9500
2022-09-22T01:47:50.320Z,960.9100
2022-09-22T01:48:01.381Z,960.9100
2022-09-22T01:48:12.430Z,960.9100
2022-09-22T01:48:23.561Z,960.9500
2022-09-22T01:48:34.615Z,960.9300
2022-09-22T01:48:45.769Z,960.9100
2022-09-22T01:48:56.809Z,960.9100
2022-09-22T01:49:08.056Z,960.9000
2022-09-22T01:49:19.100Z,960.9300
2022-09-22T01:49:30.159Z,960.9100
2022-09-22T01:49:41.289Z,960.9100
2022-09-22T01:49:52.574Z,960.9100
2022-09-22T01:50:03.653Z,960.9100
2022-09-22T01:50:14.706Z,960.9100
2022-09-22T01:50:25.843Z,960.9000
2022-09-22T01:50:36.923Z,960.9000
2022-09-22T01:50:47.962Z,960.9100
2022-09-22T01:50:59.176Z,960.9100
2022-09-22T01:51:10.388Z,960.9300
2022-09-22T01:51:21.420Z,960.9100
2022-09-22T01:51:32.485Z,960.9300
2022-09-22T01:51:43.656Z,960.9100
2022-09-22T01:51:54.824Z,960.9300
2022-09-22T01:52:05.895Z,960.9300
2022-09-22T01:52:16.965Z,960.9300
2022-09-22T01:52:28.107Z,960.9300
2022-09-22T01:52:39.207Z,960.9300
2022-09-22T01:52:50.263Z,960.9100
2022-09-22T01:53:01.312Z,960.9300
2022-09-22T01:53:12.411Z,960.9300
2022-09-22T01:53:23.620Z,960.9100
2022-09-22T01:53:34.812Z,960.9100
2022-09-22T01:53:46.019Z,960.9300
2022-09-22T01:53:57.206Z,960.9300
2022-09-22T01:54:08.390Z,960.9300
2022-09-22T01:54:19.481Z,960.9300
2022-09-22T01:54:30.610Z,960.9100
2022-09-22T01:54:41.656Z,960.9300
2022-09-22T01:54:52.690Z,960.9300
2022-09-22T01:55:03.740Z,960.9300
2022-09-22T01:55:14.940Z,960.9500
2022-09-22T01:55:26.148Z,960.9500
2022-09-22T01:55:37.348Z,960.9300
2022-09-22T01:55:48.514Z,960.9500
2022-09-22T01:55:59.791Z,960.9300
2022-09-22T01:56:10.851Z,960.9500
2022-09-22T01:56:21.931Z,960.9300
2022-09-22T01:56:33.068Z,960.9300
2022-09-22T01:56:44.168Z,960.9300
2022-09-22T01:56:55.375Z,960.9300
2022-09-22T01:57:06.567Z,960.9100
2022-09-22T01:57:17.717Z,960.9100
2022-09-22T01:57:28.787Z,960.9100
2022-09-22T01:57:39.858Z,960.9500
2022-09-22T01:57:50.987Z,960.9300
2022-09-22T01:58:02.144Z,960.9300
2022-09-22T01:58:13.192Z,960.9300
2022-09-22T01:58:24.281Z,960.9100
2022-09-22T01:58:35.428Z,960.9100
2022-09-22T01:58:46.541Z,960.9300
2022-09-22T01:58:57.619Z,960.9300
2022-09-22T01:59:08.865Z,960.9300
2022-09-22T01:59:20.045Z,960.9300
2022-09-22T01:59:31.097Z,960.9100
2022-09-22T01:59:42.165Z,960.9100
2022-09-22T01:59:53.430Z,960.9100
2022-09-22T02:00:04.568Z,960.9100
2022-09-22T02:00:15.670Z,960.9100
2022-09-22T02:00:26.778Z,960.9000
2022-09-22T02:00:37.940Z,960.9000
2022-09-22T02:00:49.081Z,960.9000
2022-09-22T02:01:00.139Z,960.9100
2022-09-22T02:01:14.628Z,960.9100
2022-09-22T02:01:26.206Z,960.9100
2022-09-22T02:01:37.473Z,960.9000
2022-09-22T02:01:48.746Z,960.9000
2022-09-22T02:01:59.939Z,960.9000
2022-09-22T02:02:11.256Z,960.9100
2022-09-22T02:02:22.854Z,960.9100
2022-09-22T02:02:34.073Z,960.9100
2022-09-22T02:02:45.405Z,960.9000
2022-09-22T02:02:57.000Z,960.9000
2022-09-22T02:03:08.081Z,960.9000
2022-09-22T02:03:19.182Z,960.9000
2022-09-22T02:03:30.280Z,960.9000
2022-09-22T02:03:41.350Z,960.9000
2022-09-22T02:03:52.721Z,960.9100
2022-09-22T02:04:03.949Z,960.9000
2022-09-22T02:04:15.154Z,960.8800
2022-09-22T02:04:26.289Z,960.9000
2022-09-22T02:04:37.357Z,960.9000
2022-09-22T02:04:48.418Z,960.9100
2022-09-22T02:04:59.560Z,960.9100
2022-09-22T02:05:10.621Z,960.9000
2022-09-22T02:05:21.680Z,960.9100
2022-09-22T02:05:32.840Z,960.9000
2022-09-22T02:05:44.040Z,960.9000
2022-09-22T02:05:55.166Z,960.9000
2022-09-22T02:06:06.209Z,960.9100
2022-09-22T02:06:17.253Z,960.9100
2022-09-22T02:06:28.387Z,960.9100
2022-09-22T02:06:39.519Z,960.9100
2022-09-22T02:06:50.589Z,960.9100
2022-09-22T02:07:01.728Z,960.9000
2022-09-22T02:07:12.819Z,960.9100
2022-09-22T02:07:23.876Z,960.9000
2022-09-22T02:07:34.949Z,960.9000
2022-09-22T02:07:46.007Z,960.9100
2022-09-22T02:07:57.154Z,960.9100
2022-09-22T02:08:08.214Z,960.9000
2022-09-22T02:08:19.258Z,960.9000
2022-09-22T02:08:30.392Z,960.9000
2022-09-22T02:08:41.463Z,960.9100
2022-09-22T02:08:52.663Z,960.9100
2022-09-22T02:09:03.810Z,960.9100
2022-09-22T02:09:14.869Z,960.9300
2022-09-22T02:09:25.975Z,960.9100
2022-09-22T02:09:37.016Z,960.9300
2022-09-22T02:09:48.220Z,960.9300
2022-09-22T02:09:59.520Z,960.9300
2022-09-22T02:10:10.581Z,960.9300
2022-09-22T02:10:21.677Z,960.9100
2022-09-22T02:10:32.876Z,960.9000
2022-09-22T02:10:43.943Z,960.9300
2022-09-22T02:10:54.989Z,960.9100